sensor_id;sensor_type;location;lat;lon;timestamp;P1;durP1;ratioP1;P2;durP2;ratioP2
78224;SDS011;67498;53.650;10.090;2023-02-15T00:01:22;39.00;;;8.13;;
78224;SDS011;67498;53.650;10.090;2023-02-15T00:03:48;19.30;;;8.43;;
78224;SDS011;67498;53.650;10.090;2023-02-15T00:06:13;21.13;;;7.13;;
78224;SDS011;67498;53.650;10.090;2023-02-15T00:08:39;32.13;;;8.60;;
78224;SDS011;67498;53.650;10.090;2023-02-15T00:13:29;27.45;;;8.35;;
78224;SDS011;67498;53.650;10.090;2023-02-15T00:15:59;30.23;;;9.30;;
78224;SDS011;67498;53.650;10.090;2023-02-15T00:18:24;14.90;;;7.10;;
78224;SDS011;67498;53.650;10.090;2023-02-15T00:20:49;13.50;;;5.30;;
78224;SDS011;67498;53.650;10.090;2023-02-15T00:23:15;12.32;;;4.40;;
78224;SDS011;67498;53.650;10.090;2023-02-15T00:25:40;24.70;;;9.05;;
78224;SDS011;67498;53.650;10.090;2023-02-15T00:28:06;18.70;;;7.47;;
78224;SDS011;67498;53.650;10.090;2023-02-15T00:30:32;19.60;;;6.63;;
78224;SDS011;67498;53.650;10.090;2023-02-15T00:32:57;20.17;;;7.20;;
78224;SDS011;67498;53.650;10.090;2023-02-15T00:35:22;15.97;;;7.03;;
78224;SDS011;67498;53.650;10.090;2023-02-15T00:37:48;23.90;;;8.50;;
78224;SDS011;67498;53.650;10.090;2023-02-15T00:40:13;31.75;;;6.88;;
78224;SDS011;67498;53.650;10.090;2023-02-15T00:42:39;12.03;;;4.93;;
78224;SDS011;67498;53.650;10.090;2023-02-15T00:45:04;21.27;;;7.97;;
78224;SDS011;67498;53.650;10.090;2023-02-15T00:47:29;25.40;;;9.37;;
78224;SDS011;67498;53.650;10.090;2023-02-15T00:49:54;23.37;;;5.57;;
78224;SDS011;67498;53.650;10.090;2023-02-15T00:52:19;19.05;;;8.82;;
78224;SDS011;67498;53.650;10.090;2023-02-15T00:54:45;16.73;;;7.47;;
78224;SDS011;67498;53.650;10.090;2023-02-15T00:57:10;40.57;;;10.10;;
78224;SDS011;67498;53.650;10.090;2023-02-15T00:59:35;20.20;;;8.87;;
78224;SDS011;67498;53.650;10.090;2023-02-15T01:02:00;16.23;;;5.87;;
78224;SDS011;67498;53.650;10.090;2023-02-15T01:04:25;18.87;;;5.47;;
78224;SDS011;67498;53.650;10.090;2023-02-15T01:06:51;25.83;;;9.73;;
78224;SDS011;67498;53.650;10.090;2023-02-15T01:09:16;17.73;;;7.70;;
78224;SDS011;67498;53.650;10.090;2023-02-15T01:11:41;22.20;;;10.10;;
78224;SDS011;67498;53.650;10.090;2023-02-15T01:14:06;25.47;;;9.33;;
78224;SDS011;67498;53.650;10.090;2023-02-15T01:16:31;26.43;;;6.53;;
78224;SDS011;67498;53.650;10.090;2023-02-15T01:18:56;22.33;;;9.33;;
78224;SDS011;67498;53.650;10.090;2023-02-15T01:21:23;23.73;;;7.97;;
78224;SDS011;67498;53.650;10.090;2023-02-15T01:23:48;21.92;;;8.80;;
78224;SDS011;67498;53.650;10.090;2023-02-15T01:26:14;30.80;;;8.93;;
78224;SDS011;67498;53.650;10.090;2023-02-15T01:28:39;16.80;;;6.77;;
78224;SDS011;67498;53.650;10.090;2023-02-15T01:31:05;35.43;;;8.57;;
78224;SDS011;67498;53.650;10.090;2023-02-15T01:33:30;35.30;;;9.25;;
78224;SDS011;67498;53.650;10.090;2023-02-15T01:35:56;19.90;;;7.73;;
78224;SDS011;67498;53.650;10.090;2023-02-15T01:38:22;26.13;;;6.82;;
78224;SDS011;67498;53.650;10.090;2023-02-15T01:40:47;14.82;;;7.13;;
78224;SDS011;67498;53.650;10.090;2023-02-15T01:43:15;22.98;;;7.22;;
78224;SDS011;67498;53.650;10.090;2023-02-15T01:45:40;17.55;;;5.65;;
78224;SDS011;67498;53.650;10.090;2023-02-15T01:50:34;11.43;;;3.72;;
78224;SDS011;67498;53.650;10.090;2023-02-15T01:55:32;24.35;;;6.30;;
78224;SDS011;67498;53.650;10.090;2023-02-15T01:57:58;17.17;;;6.97;;
78224;SDS011;67498;53.650;10.090;2023-02-15T02:00:23;13.70;;;6.53;;
78224;SDS011;67498;53.650;10.090;2023-02-15T02:02:49;26.30;;;8.33;;
78224;SDS011;67498;53.650;10.090;2023-02-15T02:05:16;17.20;;;6.40;;
78224;SDS011;67498;53.650;10.090;2023-02-15T02:07:42;19.10;;;7.37;;
78224;SDS011;67498;53.650;10.090;2023-02-15T02:10:10;15.88;;;6.75;;
78224;SDS011;67498;53.650;10.090;2023-02-15T02:12:35;18.63;;;7.47;;
78224;SDS011;67498;53.650;10.090;2023-02-15T02:15:02;23.40;;;9.32;;
78224;SDS011;67498;53.650;10.090;2023-02-15T02:30:36;20.05;;;7.65;;
78224;SDS011;67498;53.650;10.090;2023-02-15T02:35:37;18.92;;;8.45;;
78224;SDS011;67498;53.650;10.090;2023-02-15T02:40:49;16.80;;;7.38;;
78224;SDS011;67498;53.650;10.090;2023-02-15T02:43:18;19.70;;;7.80;;
78224;SDS011;67498;53.650;10.090;2023-02-15T02:45:54;22.83;;;6.43;;
78224;SDS011;67498;53.650;10.090;2023-02-15T02:48:22;16.95;;;5.80;;
78224;SDS011;67498;53.650;10.090;2023-02-15T02:50:49;31.55;;;7.40;;
78224;SDS011;67498;53.650;10.090;2023-02-15T02:53:14;41.00;;;6.40;;
78224;SDS011;67498;53.650;10.090;2023-02-15T02:55:47;15.43;;;6.50;;
78224;SDS011;67498;53.650;10.090;2023-02-15T02:58:28;20.88;;;8.32;;
78224;SDS011;67498;53.650;10.090;2023-02-15T03:01:09;23.27;;;7.13;;
78224;SDS011;67498;53.650;10.090;2023-02-15T03:03:40;21.83;;;6.93;;
78224;SDS011;67498;53.650;10.090;2023-02-15T03:06:07;24.15;;;6.28;;
78224;SDS011;67498;53.650;10.090;2023-02-15T03:08:38;16.85;;;5.78;;
78224;SDS011;67498;53.650;10.090;2023-02-15T03:11:05;52.53;;;9.60;;
78224;SDS011;67498;53.650;10.090;2023-02-15T03:13:30;16.70;;;6.97;;
78224;SDS011;67498;53.650;10.090;2023-02-15T03:15:56;18.08;;;6.88;;
78224;SDS011;67498;53.650;10.090;2023-02-15T03:18:42;17.83;;;7.33;;
78224;SDS011;67498;53.650;10.090;2023-02-15T03:21:08;18.55;;;7.00;;
78224;SDS011;67498;53.650;10.090;2023-02-15T03:23:34;38.35;;;8.18;;
78224;SDS011;67498;53.650;10.090;2023-02-15T03:26:00;41.28;;;9.73;;
78224;SDS011;67498;53.650;10.090;2023-02-15T03:28:30;13.10;;;4.97;;
78224;SDS011;67498;53.650;10.090;2023-02-15T03:30:58;13.95;;;5.35;;
78224;SDS011;67498;53.650;10.090;2023-02-15T03:33:25;15.73;;;5.57;;
78224;SDS011;67498;53.650;10.090;2023-02-15T03:38:25;19.40;;;6.07;;
78224;SDS011;67498;53.650;10.090;2023-02-15T03:40:54;42.03;;;8.17;;
78224;SDS011;67498;53.650;10.090;2023-02-15T03:48:43;12.15;;;6.07;;
78224;SDS011;67498;53.650;10.090;2023-02-15T03:51:12;43.38;;;7.25;;
78224;SDS011;67498;53.650;10.090;2023-02-15T03:53:58;25.48;;;7.35;;
78224;SDS011;67498;53.650;10.090;2023-02-15T03:56:24;10.10;;;5.00;;
78224;SDS011;67498;53.650;10.090;2023-02-15T03:58:49;15.20;;;6.00;;
78224;SDS011;67498;53.650;10.090;2023-02-15T04:01:34;43.05;;;6.65;;
78224;SDS011;67498;53.650;10.090;2023-02-15T04:04:20;20.40;;;6.80;;
78224;SDS011;67498;53.650;10.090;2023-02-15T04:06:47;17.90;;;6.25;;
78224;SDS011;67498;53.650;10.090;2023-02-15T04:09:12;14.20;;;5.70;;
78224;SDS011;67498;53.650;10.090;2023-02-15T04:11:56;23.58;;;8.25;;
78224;SDS011;67498;53.650;10.090;2023-02-15T04:14:21;17.23;;;6.40;;
78224;SDS011;67498;53.650;10.090;2023-02-15T04:17:08;20.75;;;7.05;;
78224;SDS011;67498;53.650;10.090;2023-02-15T04:19:34;18.83;;;5.73;;
78224;SDS011;67498;53.650;10.090;2023-02-15T04:22:18;17.65;;;6.75;;
78224;SDS011;67498;53.650;10.090;2023-02-15T04:25:02;14.00;;;4.70;;
78224;SDS011;67498;53.650;10.090;2023-02-15T04:27:40;25.02;;;7.75;;
78224;SDS011;67498;53.650;10.090;2023-02-15T04:30:07;15.93;;;7.22;;
78224;SDS011;67498;53.650;10.090;2023-02-15T04:32:33;22.67;;;5.90;;
78224;SDS011;67498;53.650;10.090;2023-02-15T04:34:59;20.63;;;6.72;;
78224;SDS011;67498;53.650;10.090;2023-02-15T04:37:24;45.40;;;5.40;;
78224;SDS011;67498;53.650;10.090;2023-02-15T04:39:49;26.43;;;8.73;;
78224;SDS011;67498;53.650;10.090;2023-02-15T04:42:14;21.07;;;7.13;;
78224;SDS011;67498;53.650;10.090;2023-02-15T04:44:40;24.30;;;6.57;;
78224;SDS011;67498;53.650;10.090;2023-02-15T04:47:05;26.67;;;8.93;;
78224;SDS011;67498;53.650;10.090;2023-02-15T04:49:30;20.80;;;5.32;;
78224;SDS011;67498;53.650;10.090;2023-02-15T04:51:55;18.20;;;6.20;;
78224;SDS011;67498;53.650;10.090;2023-02-15T04:54:20;16.83;;;5.80;;
78224;SDS011;67498;53.650;10.090;2023-02-15T04:56:46;30.67;;;6.00;;
78224;SDS011;67498;53.650;10.090;2023-02-15T04:59:11;22.30;;;8.07;;
78224;SDS011;67498;53.650;10.090;2023-02-15T05:01:36;16.88;;;6.45;;
78224;SDS011;67498;53.650;10.090;2023-02-15T05:04:02;14.77;;;6.40;;
78224;SDS011;67498;53.650;10.090;2023-02-15T05:06:27;19.57;;;7.93;;
78224;SDS011;67498;53.650;10.090;2023-02-15T05:08:52;24.00;;;7.97;;
78224;SDS011;67498;53.650;10.090;2023-02-15T05:11:18;14.43;;;6.17;;
78224;SDS011;67498;53.650;10.090;2023-02-15T05:13:43;17.93;;;6.77;;
78224;SDS011;67498;53.650;10.090;2023-02-15T05:16:08;19.63;;;7.93;;
78224;SDS011;67498;53.650;10.090;2023-02-15T05:18:33;25.73;;;7.80;;
78224;SDS011;67498;53.650;10.090;2023-02-15T05:20:58;18.60;;;5.93;;
78224;SDS011;67498;53.650;10.090;2023-02-15T05:23:24;19.07;;;7.10;;
78224;SDS011;67498;53.650;10.090;2023-02-15T05:25:49;32.97;;;6.13;;
78224;SDS011;67498;53.650;10.090;2023-02-15T05:28:33;29.33;;;5.20;;
78224;SDS011;67498;53.650;10.090;2023-02-15T05:31:02;38.25;;;5.93;;
78224;SDS011;67498;53.650;10.090;2023-02-15T05:33:27;17.30;;;7.28;;
78224;SDS011;67498;53.650;10.090;2023-02-15T05:35:52;19.33;;;3.93;;
78224;SDS011;67498;53.650;10.090;2023-02-15T05:38:18;21.70;;;7.15;;
78224;SDS011;67498;53.650;10.090;2023-02-15T05:40:43;17.93;;;6.27;;
78224;SDS011;67498;53.650;10.090;2023-02-15T05:43:08;61.50;;;7.90;;
78224;SDS011;67498;53.650;10.090;2023-02-15T05:45:33;18.90;;;6.55;;
78224;SDS011;67498;53.650;10.090;2023-02-15T05:47:58;36.80;;;6.50;;
78224;SDS011;67498;53.650;10.090;2023-02-15T05:50:24;16.90;;;5.67;;
78224;SDS011;67498;53.650;10.090;2023-02-15T05:52:49;11.57;;;4.00;;
78224;SDS011;67498;53.650;10.090;2023-02-15T05:55:14;10.73;;;5.93;;
78224;SDS011;67498;53.650;10.090;2023-02-15T05:57:40;29.23;;;6.00;;
78224;SDS011;67498;53.650;10.090;2023-02-15T06:00:05;16.87;;;5.23;;
78224;SDS011;67498;53.650;10.090;2023-02-15T06:02:36;11.97;;;5.83;;
78224;SDS011;67498;53.650;10.090;2023-02-15T06:05:02;11.73;;;4.40;;
78224;SDS011;67498;53.650;10.090;2023-02-15T06:07:28;14.10;;;6.28;;
78224;SDS011;67498;53.650;10.090;2023-02-15T06:09:53;47.17;;;5.95;;
78224;SDS011;67498;53.650;10.090;2023-02-15T06:12:18;8.95;;;4.18;;
78224;SDS011;67498;53.650;10.090;2023-02-15T06:14:43;22.47;;;5.33;;
78224;SDS011;67498;53.650;10.090;2023-02-15T06:17:08;46.10;;;6.73;;
78224;SDS011;67498;53.650;10.090;2023-02-15T06:19:33;13.43;;;3.88;;
78224;SDS011;67498;53.650;10.090;2023-02-15T06:21:59;42.95;;;5.80;;
78224;SDS011;67498;53.650;10.090;2023-02-15T06:24:24;10.10;;;3.95;;
78224;SDS011;67498;53.650;10.090;2023-02-15T06:26:49;23.35;;;5.80;;
78224;SDS011;67498;53.650;10.090;2023-02-15T06:29:14;6.07;;;1.57;;
78224;SDS011;67498;53.650;10.090;2023-02-15T06:31:39;12.73;;;5.57;;
78224;SDS011;67498;53.650;10.090;2023-02-15T06:34:04;12.10;;;4.67;;
78224;SDS011;67498;53.650;10.090;2023-02-15T06:36:30;17.67;;;5.22;;
78224;SDS011;67498;53.650;10.090;2023-02-15T06:38:56;20.65;;;5.10;;
78224;SDS011;67498;53.650;10.090;2023-02-15T06:41:22;15.33;;;5.87;;
78224;SDS011;67498;53.650;10.090;2023-02-15T06:43:47;15.03;;;5.43;;
78224;SDS011;67498;53.650;10.090;2023-02-15T06:46:12;31.00;;;4.33;;
78224;SDS011;67498;53.650;10.090;2023-02-15T06:48:38;9.40;;;4.47;;
78224;SDS011;67498;53.650;10.090;2023-02-15T06:51:03;19.97;;;5.07;;
78224;SDS011;67498;53.650;10.090;2023-02-15T06:53:28;9.20;;;3.25;;
78224;SDS011;67498;53.650;10.090;2023-02-15T06:55:59;28.00;;;5.13;;
78224;SDS011;67498;53.650;10.090;2023-02-15T06:58:24;13.40;;;3.73;;
78224;SDS011;67498;53.650;10.090;2023-02-15T07:00:51;10.80;;;3.17;;
78224;SDS011;67498;53.650;10.090;2023-02-15T07:03:16;10.65;;;4.72;;
78224;SDS011;67498;53.650;10.090;2023-02-15T07:05:41;17.80;;;4.00;;
78224;SDS011;67498;53.650;10.090;2023-02-15T07:08:06;9.73;;;4.70;;
78224;SDS011;67498;53.650;10.090;2023-02-15T07:10:31;16.42;;;5.95;;
78224;SDS011;67498;53.650;10.090;2023-02-15T07:12:57;12.55;;;4.53;;
78224;SDS011;67498;53.650;10.090;2023-02-15T07:15:22;17.83;;;4.90;;
78224;SDS011;67498;53.650;10.090;2023-02-15T07:17:47;15.53;;;4.97;;
78224;SDS011;67498;53.650;10.090;2023-02-15T07:20:14;10.03;;;4.37;;
78224;SDS011;67498;53.650;10.090;2023-02-15T07:22:39;10.97;;;4.50;;
78224;SDS011;67498;53.650;10.090;2023-02-15T07:25:05;11.07;;;4.80;;
78224;SDS011;67498;53.650;10.090;2023-02-15T07:27:31;14.23;;;4.88;;
78224;SDS011;67498;53.650;10.090;2023-02-15T07:29:56;15.90;;;5.73;;
78224;SDS011;67498;53.650;10.090;2023-02-15T07:32:22;12.93;;;5.50;;
78224;SDS011;67498;53.650;10.090;2023-02-15T07:34:47;16.47;;;5.10;;
78224;SDS011;67498;53.650;10.090;2023-02-15T07:37:12;10.13;;;4.07;;
78224;SDS011;67498;53.650;10.090;2023-02-15T07:39:37;8.90;;;4.77;;
78224;SDS011;67498;53.650;10.090;2023-02-15T07:42:02;16.43;;;5.73;;
78224;SDS011;67498;53.650;10.090;2023-02-15T07:44:27;42.77;;;6.60;;
78224;SDS011;67498;53.650;10.090;2023-02-15T07:46:53;18.33;;;4.53;;
78224;SDS011;67498;53.650;10.090;2023-02-15T07:49:18;11.43;;;5.28;;
78224;SDS011;67498;53.650;10.090;2023-02-15T07:51:43;9.17;;;3.57;;
78224;SDS011;67498;53.650;10.090;2023-02-15T07:54:08;3.40;;;1.70;;
78224;SDS011;67498;53.650;10.090;2023-02-15T07:56:36;29.90;;;5.67;;
78224;SDS011;67498;53.650;10.090;2023-02-15T07:59:01;26.65;;;4.72;;
78224;SDS011;67498;53.650;10.090;2023-02-15T08:01:32;15.18;;;6.05;;
78224;SDS011;67498;53.650;10.090;2023-02-15T08:03:58;17.47;;;5.77;;
78224;SDS011;67498;53.650;10.090;2023-02-15T08:06:24;31.30;;;4.55;;
78224;SDS011;67498;53.650;10.090;2023-02-15T08:08:49;9.53;;;3.50;;
78224;SDS011;67498;53.650;10.090;2023-02-15T08:11:16;11.53;;;3.60;;
78224;SDS011;67498;53.650;10.090;2023-02-15T08:13:54;26.90;;;6.65;;
78224;SDS011;67498;53.650;10.090;2023-02-15T08:19:07;34.10;;;4.03;;
78224;SDS011;67498;53.650;10.090;2023-02-15T08:21:33;15.82;;;4.35;;
78224;SDS011;67498;53.650;10.090;2023-02-15T08:23:58;19.60;;;4.40;;
78224;SDS011;67498;53.650;10.090;2023-02-15T08:26:24;13.17;;;5.87;;
78224;SDS011;67498;53.650;10.090;2023-02-15T08:28:50;12.25;;;4.78;;
78224;SDS011;67498;53.650;10.090;2023-02-15T08:31:16;11.95;;;5.63;;
78224;SDS011;67498;53.650;10.090;2023-02-15T08:33:42;43.93;;;6.60;;
78224;SDS011;67498;53.650;10.090;2023-02-15T08:36:08;17.13;;;5.27;;
78224;SDS011;67498;53.650;10.090;2023-02-15T08:38:34;8.02;;;3.15;;
78224;SDS011;67498;53.650;10.090;2023-02-15T08:41:09;23.77;;;4.60;;
78224;SDS011;67498;53.650;10.090;2023-02-15T08:43:34;6.68;;;3.17;;
78224;SDS011;67498;53.650;10.090;2023-02-15T08:45:59;12.13;;;5.27;;
78224;SDS011;67498;53.650;10.090;2023-02-15T08:48:24;10.37;;;4.60;;
78224;SDS011;67498;53.650;10.090;2023-02-15T08:50:50;4.53;;;1.97;;
78224;SDS011;67498;53.650;10.090;2023-02-15T08:53:15;27.67;;;5.32;;
78224;SDS011;67498;53.650;10.090;2023-02-15T08:55:40;10.90;;;4.07;;
78224;SDS011;67498;53.650;10.090;2023-02-15T08:58:05;7.43;;;3.93;;
78224;SDS011;67498;53.650;10.090;2023-02-15T09:00:30;17.20;;;6.37;;
78224;SDS011;67498;53.650;10.090;2023-02-15T09:02:56;25.60;;;6.50;;
78224;SDS011;67498;53.650;10.090;2023-02-15T09:05:21;6.73;;;3.47;;
78224;SDS011;67498;53.650;10.090;2023-02-15T09:07:46;9.80;;;4.00;;
78224;SDS011;67498;53.650;10.090;2023-02-15T09:10:11;11.50;;;4.07;;
78224;SDS011;67498;53.650;10.090;2023-02-15T09:12:36;10.30;;;4.50;;
78224;SDS011;67498;53.650;10.090;2023-02-15T09:15:02;27.07;;;5.37;;
78224;SDS011;67498;53.650;10.090;2023-02-15T09:17:27;13.07;;;4.63;;
78224;SDS011;67498;53.650;10.090;2023-02-15T09:19:52;8.93;;;3.05;;
78224;SDS011;67498;53.650;10.090;2023-02-15T09:22:17;74.10;;;8.63;;
78224;SDS011;67498;53.650;10.090;2023-02-15T09:24:42;12.60;;;4.90;;
78224;SDS011;67498;53.650;10.090;2023-02-15T09:27:08;11.33;;;5.23;;
78224;SDS011;67498;53.650;10.090;2023-02-15T09:29:33;15.70;;;6.10;;
78224;SDS011;67498;53.650;10.090;2023-02-15T09:31:58;11.65;;;5.75;;
78224;SDS011;67498;53.650;10.090;2023-02-15T09:34:23;14.95;;;4.85;;
78224;SDS011;67498;53.650;10.090;2023-02-15T09:36:49;45.73;;;7.53;;
78224;SDS011;67498;53.650;10.090;2023-02-15T09:39:15;15.90;;;6.23;;
78224;SDS011;67498;53.650;10.090;2023-02-15T09:41:52;11.48;;;5.78;;
78224;SDS011;67498;53.650;10.090;2023-02-15T09:46:59;39.90;;;3.33;;
78224;SDS011;67498;53.650;10.090;2023-02-15T09:51:57;18.13;;;5.60;;
78224;SDS011;67498;53.650;10.090;2023-02-15T09:54:29;14.23;;;4.53;;
78224;SDS011;67498;53.650;10.090;2023-02-15T09:56:58;30.65;;;5.32;;
78224;SDS011;67498;53.650;10.090;2023-02-15T10:01:54;35.10;;;6.07;;
78224;SDS011;67498;53.650;10.090;2023-02-15T10:07:04;25.33;;;5.33;;
78224;SDS011;67498;53.650;10.090;2023-02-15T10:12:07;8.82;;;4.60;;
78224;SDS011;67498;53.650;10.090;2023-02-15T10:25:28;11.82;;;5.60;;
78224;SDS011;67498;53.650;10.090;2023-02-15T10:27:56;11.05;;;5.93;;
78224;SDS011;67498;53.650;10.090;2023-02-15T10:30:27;21.80;;;6.07;;
78224;SDS011;67498;53.650;10.090;2023-02-15T10:33:00;16.90;;;7.07;;
78224;SDS011;67498;53.650;10.090;2023-02-15T10:35:30;18.53;;;6.93;;
78224;SDS011;67498;53.650;10.090;2023-02-15T10:38:13;20.52;;;7.10;;
78224;SDS011;67498;53.650;10.090;2023-02-15T10:45:51;9.25;;;4.30;;
78224;SDS011;67498;53.650;10.090;2023-02-15T10:50:48;20.13;;;5.88;;
78224;SDS011;67498;53.650;10.090;2023-02-15T10:53:24;16.85;;;5.30;;
78224;SDS011;67498;53.650;10.090;2023-02-15T10:55:55;24.48;;;6.75;;
78224;SDS011;67498;53.650;10.090;2023-02-15T10:58:29;19.98;;;6.22;;
78224;SDS011;67498;53.650;10.090;2023-02-15T11:01:12;12.80;;;6.20;;
78224;SDS011;67498;53.650;10.090;2023-02-15T11:06:22;12.68;;;5.28;;
78224;SDS011;67498;53.650;10.090;2023-02-15T11:08:54;23.17;;;8.45;;
78224;SDS011;67498;53.650;10.090;2023-02-15T11:11:25;17.90;;;7.70;;
78224;SDS011;67498;53.650;10.090;2023-02-15T11:14:01;16.55;;;5.72;;
78224;SDS011;67498;53.650;10.090;2023-02-15T11:16:29;28.10;;;8.57;;
78224;SDS011;67498;53.650;10.090;2023-02-15T11:19:03;12.82;;;6.22;;
78224;SDS011;67498;53.650;10.090;2023-02-15T11:21:37;15.20;;;6.78;;
78224;SDS011;67498;53.650;10.090;2023-02-15T11:24:09;27.05;;;8.70;;
78224;SDS011;67498;53.650;10.090;2023-02-15T11:26:37;22.80;;;7.60;;
78224;SDS011;67498;53.650;10.090;2023-02-15T11:31:50;22.40;;;8.63;;
78224;SDS011;67498;53.650;10.090;2023-02-15T11:34:34;23.20;;;9.65;;
78224;SDS011;67498;53.650;10.090;2023-02-15T11:37:01;24.23;;;9.18;;
78224;SDS011;67498;53.650;10.090;2023-02-15T11:39:29;20.58;;;8.70;;
78224;SDS011;67498;53.650;10.090;2023-02-15T11:41:57;15.50;;;5.70;;
78224;SDS011;67498;53.650;10.090;2023-02-15T11:44:28;25.00;;;9.00;;
78224;SDS011;67498;53.650;10.090;2023-02-15T11:46:56;24.00;;;9.13;;
78224;SDS011;67498;53.650;10.090;2023-02-15T11:49:23;27.73;;;7.07;;
78224;SDS011;67498;53.650;10.090;2023-02-15T11:51:49;10.02;;;4.47;;
78224;SDS011;67498;53.650;10.090;2023-02-15T11:54:17;8.23;;;4.47;;
78224;SDS011;67498;53.650;10.090;2023-02-15T11:56:42;15.73;;;6.60;;
78224;SDS011;67498;53.650;10.090;2023-02-15T11:59:11;29.90;;;9.40;;
78224;SDS011;67498;53.650;10.090;2023-02-15T12:01:39;28.60;;;10.40;;
78224;SDS011;67498;53.650;10.090;2023-02-15T12:06:53;21.73;;;9.45;;
78224;SDS011;67498;53.650;10.090;2023-02-15T12:09:36;22.73;;;8.02;;
78224;SDS011;67498;53.650;10.090;2023-02-15T12:14:48;7.97;;;3.78;;
78224;SDS011;67498;53.650;10.090;2023-02-15T12:17:13;25.33;;;9.77;;
78224;SDS011;67498;53.650;10.090;2023-02-15T12:19:40;21.92;;;9.18;;
78224;SDS011;67498;53.650;10.090;2023-02-15T12:22:06;25.43;;;9.73;;
78224;SDS011;67498;53.650;10.090;2023-02-15T12:24:45;23.40;;;8.65;;
78224;SDS011;67498;53.650;10.090;2023-02-15T12:27:15;30.08;;;7.13;;
78224;SDS011;67498;53.650;10.090;2023-02-15T12:29:45;25.13;;;10.70;;
78224;SDS011;67498;53.650;10.090;2023-02-15T12:32:15;31.83;;;9.57;;
78224;SDS011;67498;53.650;10.090;2023-02-15T12:34:41;22.63;;;8.63;;
78224;SDS011;67498;53.650;10.090;2023-02-15T12:37:09;21.52;;;8.07;;
78224;SDS011;67498;53.650;10.090;2023-02-15T12:39:36;30.80;;;11.63;;
78224;SDS011;67498;53.650;10.090;2023-02-15T12:42:03;29.33;;;10.90;;
78224;SDS011;67498;53.650;10.090;2023-02-15T12:44:32;22.60;;;9.33;;
78224;SDS011;67498;53.650;10.090;2023-02-15T12:46:59;21.23;;;9.52;;
78224;SDS011;67498;53.650;10.090;2023-02-15T12:49:25;21.77;;;8.50;;
78224;SDS011;67498;53.650;10.090;2023-02-15T12:51:55;24.75;;;9.18;;
78224;SDS011;67498;53.650;10.090;2023-02-15T12:56:49;21.37;;;8.53;;
78224;SDS011;67498;53.650;10.090;2023-02-15T12:59:15;29.10;;;10.65;;
78224;SDS011;67498;53.650;10.090;2023-02-15T13:01:45;18.98;;;8.43;;
78224;SDS011;67498;53.650;10.090;2023-02-15T13:04:27;28.77;;;9.83;;
78224;SDS011;67498;53.650;10.090;2023-02-15T13:06:57;26.83;;;9.88;;
78224;SDS011;67498;53.650;10.090;2023-02-15T13:11:56;30.00;;;9.23;;
78224;SDS011;67498;53.650;10.090;2023-02-15T13:14:30;12.57;;;5.40;;
78224;SDS011;67498;53.650;10.090;2023-02-15T13:16:56;19.63;;;8.70;;
78224;SDS011;67498;53.650;10.090;2023-02-15T13:22:14;20.10;;;9.15;;
78224;SDS011;67498;53.650;10.090;2023-02-15T13:24:40;15.95;;;7.07;;
78224;SDS011;67498;53.650;10.090;2023-02-15T13:27:07;15.02;;;7.03;;
78224;SDS011;67498;53.650;10.090;2023-02-15T13:29:36;25.27;;;10.13;;
78224;SDS011;67498;53.650;10.090;2023-02-15T13:32:12;29.03;;;10.47;;
78224;SDS011;67498;53.650;10.090;2023-02-15T13:34:40;19.98;;;8.95;;
78224;SDS011;67498;53.650;10.090;2023-02-15T13:37:07;21.20;;;8.83;;
78224;SDS011;67498;53.650;10.090;2023-02-15T13:39:47;30.50;;;10.00;;
78224;SDS011;67498;53.650;10.090;2023-02-15T13:44:59;24.85;;;9.73;;
78224;SDS011;67498;53.650;10.090;2023-02-15T13:47:31;17.80;;;8.70;;
78224;SDS011;67498;53.650;10.090;2023-02-15T13:50:03;26.85;;;10.02;;
78224;SDS011;67498;53.650;10.090;2023-02-15T13:52:38;22.88;;;9.82;;
78224;SDS011;67498;53.650;10.090;2023-02-15T14:08:11;27.38;;;9.13;;
78224;SDS011;67498;53.650;10.090;2023-02-15T14:10:54;27.77;;;10.02;;
78224;SDS011;67498;53.650;10.090;2023-02-15T14:18:40;27.30;;;10.40;;
78224;SDS011;67498;53.650;10.090;2023-02-15T14:21:21;24.20;;;8.70;;
78224;SDS011;67498;53.650;10.090;2023-02-15T14:26:38;25.27;;;9.10;;
78224;SDS011;67498;53.650;10.090;2023-02-15T14:29:12;24.25;;;9.10;;
78224;SDS011;67498;53.650;10.090;2023-02-15T14:31:41;33.43;;;8.27;;
78224;SDS011;67498;53.650;10.090;2023-02-15T14:34:21;27.48;;;9.68;;
78224;SDS011;67498;53.650;10.090;2023-02-15T14:36:47;33.28;;;9.07;;
78224;SDS011;67498;53.650;10.090;2023-02-15T14:39:18;26.03;;;8.93;;
78224;SDS011;67498;53.650;10.090;2023-02-15T14:42:18;26.35;;;9.27;;
78224;SDS011;67498;53.650;10.090;2023-02-15T14:44:53;24.00;;;10.10;;
78224;SDS011;67498;53.650;10.090;2023-02-15T14:47:24;18.88;;;9.60;;
78224;SDS011;67498;53.650;10.090;2023-02-15T14:49:50;21.52;;;7.55;;
78224;SDS011;67498;53.650;10.090;2023-02-15T14:52:15;22.03;;;8.73;;
78224;SDS011;67498;53.650;10.090;2023-02-15T14:59:45;23.80;;;9.60;;
78224;SDS011;67498;53.650;10.090;2023-02-15T15:02:15;22.95;;;10.13;;
78224;SDS011;67498;53.650;10.090;2023-02-15T15:04:42;20.10;;;8.57;;
78224;SDS011;67498;53.650;10.090;2023-02-15T15:07:20;20.33;;;9.30;;
78224;SDS011;67498;53.650;10.090;2023-02-15T15:09:48;26.92;;;8.95;;
78224;SDS011;67498;53.650;10.090;2023-02-15T15:14:48;20.27;;;8.85;;
78224;SDS011;67498;53.650;10.090;2023-02-15T15:17:51;23.92;;;9.00;;
78224;SDS011;67498;53.650;10.090;2023-02-15T15:22:24;25.92;;;9.43;;
78224;SDS011;67498;53.650;10.090;2023-02-15T15:24:51;21.05;;;7.05;;
78224;SDS011;67498;53.650;10.090;2023-02-15T15:30:01;16.20;;;7.50;;
78224;SDS011;67498;53.650;10.090;2023-02-15T15:32:27;27.83;;;8.40;;
78224;SDS011;67498;53.650;10.090;2023-02-15T15:35:05;19.85;;;7.95;;
78224;SDS011;67498;53.650;10.090;2023-02-15T15:50:21;17.85;;;6.80;;
78224;SDS011;67498;53.650;10.090;2023-02-15T15:52:47;17.27;;;6.73;;
78224;SDS011;67498;53.650;10.090;2023-02-15T15:55:14;20.55;;;8.20;;
78224;SDS011;67498;53.650;10.090;2023-02-15T15:57:41;19.83;;;6.90;;
78224;SDS011;67498;53.650;10.090;2023-02-15T16:00:41;16.38;;;7.40;;
78224;SDS011;67498;53.650;10.090;2023-02-15T16:02:59;14.63;;;6.90;;
78224;SDS011;67498;53.650;10.090;2023-02-15T16:05:24;16.47;;;7.10;;
78224;SDS011;67498;53.650;10.090;2023-02-15T16:07:49;12.73;;;6.00;;
78224;SDS011;67498;53.650;10.090;2023-02-15T16:12:46;19.42;;;6.60;;
78224;SDS011;67498;53.650;10.090;2023-02-15T16:15:13;13.73;;;5.50;;
78224;SDS011;67498;53.650;10.090;2023-02-15T16:17:40;15.68;;;6.65;;
78224;SDS011;67498;53.650;10.090;2023-02-15T16:20:16;14.88;;;6.68;;
78224;SDS011;67498;53.650;10.090;2023-02-15T16:22:43;13.45;;;6.13;;
78224;SDS011;67498;53.650;10.090;2023-02-15T16:25:30;15.50;;;5.83;;
78224;SDS011;67498;53.650;10.090;2023-02-15T16:27:56;11.93;;;6.10;;
78224;SDS011;67498;53.650;10.090;2023-02-15T16:30:28;20.27;;;7.70;;
78224;SDS011;67498;53.650;10.090;2023-02-15T16:32:55;18.38;;;6.60;;
78224;SDS011;67498;53.650;10.090;2023-02-15T16:35:27;14.85;;;6.40;;
78224;SDS011;67498;53.650;10.090;2023-02-15T16:37:52;19.87;;;7.07;;
78224;SDS011;67498;53.650;10.090;2023-02-15T16:42:49;13.57;;;6.57;;
78224;SDS011;67498;53.650;10.090;2023-02-15T16:45:16;15.65;;;6.97;;
78224;SDS011;67498;53.650;10.090;2023-02-15T16:47:44;14.60;;;6.43;;